Time;durP1;ratioP1;P1;durP2;ratioP2;P2;SDS_P1;SDS_P2;PMS_P1;PMS_P2;Temp;Humidity;BMP_temperature;BMP_pressure;BME280_temperature;BME280_humidity;BME280_pressure;Samples;Min_cycle;Max_cycle;Signal;HPM_P1;HPM_P2
2023/09/13 00:01:09;;;;;;;4.53;4.13;;;;;;;-144.30;63.08;84710.66;5072115;28;20202;-58
2023/09/13 00:03:36;;;;;;;4.47;4.03;;;;;;;-144.30;62.62;84730.53;5073449;28;20199;-50
2023/09/13 00:06:03;;;;;;;4.18;3.88;;;;;;;-144.30;62.32;84720.59;5073550;28;20204;-58
2023/09/13 00:08:30;;;;;;;4.50;4.10;;;;;;;-144.30;62.66;84752.41;5073310;28;20200;-58
2023/09/13 00:11:02;;;;;;;5.28;3.85;;;;;;;-144.30;62.41;84760.34;5073181;28;20206;-58
2023/09/13 00:13:29;;;;;;;8.27;4.07;;;;;;;-144.30;62.16;84740.47;5073414;28;20202;-58
2023/09/13 00:15:58;;;;;;;7.53;4.57;;;;;;;-144.30;62.10;84718.63;5073337;28;20648;-56
2023/09/13 00:18:24;;;;;;;12.77;5.20;;;;;;;-144.30;61.74;84766.31;5072849;28;20224;-49
2023/09/13 00:20:52;;;;;;;6.38;5.07;;;;;;;-144.30;61.58;84776.25;5073061;28;20200;-49
2023/09/13 00:23:19;;;;;;;4.65;4.20;;;;;;;-144.30;61.65;84760.34;5072901;28;20202;-48
2023/09/13 00:25:46;;;;;;;9.68;5.07;;;;;;;-144.30;61.98;84796.13;5072934;28;20753;-48
2023/09/13 00:28:13;;;;;;;6.88;5.05;;;;;;;-144.30;61.82;84792.16;5073290;28;20557;-56
2023/09/13 00:30:40;;;;;;;7.78;4.80;;;;;;;-144.30;61.81;84843.84;5073075;28;20577;-57
2023/09/13 00:33:08;;;;;;;5.80;4.90;;;;;;;-144.30;62.11;84819.97;5072866;28;20664;-49
2023/09/13 00:35:35;;;;;;;6.32;4.85;;;;;;;-144.30;62.18;84764.31;5072499;28;20224;-49
2023/09/13 00:38:02;;;;;;;5.70;4.72;;;;;;;-144.30;62.43;84825.94;5072844;28;20700;-57
2023/09/13 00:40:29;;;;;;;5.45;4.95;;;;;;;-144.30;62.95;84837.88;5072428;28;20192;-57
2023/09/13 00:42:56;;;;;;;5.22;4.72;;;;;;;-144.30;62.83;84827.94;5072669;28;20199;-57
2023/09/13 00:45:25;;;;;;;6.30;4.65;;;;;;;-144.30;63.03;84839.84;5072413;28;20188;-57
2023/09/13 00:47:52;;;;;;;5.50;5.00;;;;;;;-144.30;62.96;84861.72;5072671;28;20676;-57
2023/09/13 00:50:21;;;;;;;4.88;4.30;;;;;;;-144.30;63.09;84847.81;5072287;28;20199;-57
2023/09/13 00:52:48;;;;;;;5.97;4.80;;;;;;;-144.30;63.36;84839.84;5072364;28;20676;-57
2023/09/13 00:55:17;;;;;;;6.90;4.70;;;;;;;-144.30;63.70;84839.84;5072422;28;20227;-57
2023/09/13 00:57:45;;;;;;;7.72;4.72;;;;;;;-144.30;63.87;84875.63;5072828;28;20697;-50
2023/09/13 01:00:14;;;;;;;10.23;4.80;;;;;;;-144.30;63.88;84847.81;5072565;28;20192;-49
2023/09/13 01:02:42;;;;;;;6.38;4.38;;;;;;;-144.30;63.97;84816.00;5072005;28;20206;-58
2023/09/13 01:05:10;;;;;;;7.53;4.75;;;;;;;-144.30;64.17;84871.66;5072179;28;20873;-57
2023/09/13 01:07:41;;;;;;;8.90;4.47;;;;;;;-144.30;64.68;84887.56;5072003;28;20719;-58
2023/09/13 01:10:08;;;;;;;6.85;4.70;;;;;;;-144.30;65.03;84885.56;5072243;28;20204;-49
2023/09/13 01:12:35;;;;;;;12.88;5.22;;;;;;;-144.30;65.06;84851.78;5071890;28;20202;-57
2023/09/13 01:15:06;;;;;;;7.75;4.72;;;;;;;-144.30;65.39;84887.56;5071961;28;20227;-48
2023/09/13 01:17:47;;;;;;;6.15;4.82;;;;;;;-144.30;65.84;84925.31;5071868;28;20726;-56
2023/09/13 01:20:19;;;;;;;6.82;5.45;;;;;;;-144.30;65.89;84901.47;5072128;28;20200;-57
2023/09/13 01:23:22;;;;;;;6.10;4.88;;;;;;;-144.30;65.47;84881.59;5072368;28;20203;-49
2023/09/13 01:26:02;;;;;;;9.43;5.25;;;;;;;-144.30;65.42;84806.06;5069144;28;20188;-57
2023/09/13 01:28:41;;;;;;;12.50;5.55;;;;;;;-144.30;65.73;84883.59;5071679;28;20196;-49
2023/09/13 01:31:10;;;;;;;7.82;5.13;;;;;;;-144.30;65.79;84881.59;5071953;28;20241;-49
2023/09/13 01:33:37;;;;;;;6.25;5.03;;;;;;;-144.30;66.26;84895.50;5071834;28;20206;-49
2023/09/13 01:36:05;;;;;;;6.78;4.88;;;;;;;-144.30;66.39;84899.47;5071799;28;20220;-47
2023/09/13 01:38:32;;;;;;;5.32;4.82;;;;;;;-144.30;66.73;84905.44;5071564;28;20590;-48
2023/09/13 01:41:05;;;;;;;6.78;4.75;;;;;;;-144.30;67.15;84885.56;5071635;28;20668;-48
2023/09/13 01:43:33;;;;;;;9.75;4.72;;;;;;;-144.30;67.50;84891.53;5071386;28;20214;-57
2023/09/13 01:46:03;;;;;;;8.40;5.70;;;;;;;-144.30;67.69;84905.44;5071596;28;20203;-49
2023/09/13 01:48:31;;;;;;;12.57;5.18;;;;;;;-144.30;67.83;84931.28;5071172;28;20192;-57
2023/09/13 01:50:58;;;;;;;7.93;5.03;;;;;;;-144.30;67.90;84943.22;5071534;28;20699;-57
2023/09/13 01:53:25;;;;;;;6.43;5.10;;;;;;;-144.30;68.11;84929.28;5071028;28;20224;-49
2023/09/13 01:55:52;;;;;;;5.15;4.75;;;;;;;-144.30;68.45;84943.22;5071478;28;20216;-48
2023/09/13 01:58:19;;;;;;;7.60;4.93;;;;;;;-144.30;68.88;84935.25;5071531;28;20234;-57
2023/09/13 02:00:46;;;;;;;8.05;4.78;;;;;;;-144.30;69.12;84959.13;5071566;28;20198;-57
2023/09/13 02:03:15;;;;;;;6.82;4.97;;;;;;;-144.30;70.21;84907.44;5071127;28;20230;-57
2023/09/13 02:05:41;;;;;;;7.60;5.07;;;;;;;-144.30;71.16;84937.25;5070910;28;20686;-48
2023/09/13 02:08:08;;;;;;;6.33;4.90;;;;;;;-144.30;72.85;84998.88;5070975;28;20737;-48
2023/09/13 02:10:35;;;;;;;12.10;5.88;;;;;;;-144.30;73.53;85002.84;5070840;28;20196;-48
2023/09/13 02:13:02;;;;;;;9.13;6.07;;;;;;;-144.30;74.09;85022.72;5070979;28;20294;-58
2023/09/13 02:15:29;;;;;;;8.33;6.43;;;;;;;-144.30;74.19;85002.84;5070657;28;20216;-58
2023/09/13 02:17:56;;;;;;;11.77;6.57;;;;;;;-144.30;74.48;85022.72;5070745;28;20723;-49
2023/09/13 02:20:24;;;;;;;13.87;6.33;;;;;;;-144.30;74.57;85018.75;5070420;28;20199;-48
2023/09/13 02:22:51;;;;;;;11.77;6.47;;;;;;;-144.30;74.28;85052.53;5070521;28;20562;-48
2023/09/13 02:25:19;;;;;;;8.87;6.53;;;;;;;-144.30;74.41;85038.63;5070868;28;20211;-57
2023/09/13 02:27:46;;;;;;;9.07;6.57;;;;;;;-144.30;74.60;85074.41;5070415;28;20200;-57
2023/09/13 02:30:13;;;;;;;8.80;6.40;;;;;;;-144.30;74.44;85102.22;5070499;28;20202;-57
2023/09/13 02:32:40;;;;;;;9.97;7.20;;;;;;;-144.30;74.66;85070.44;5070113;28;20204;-48
2023/09/13 02:35:08;;;;;;;9.27;7.10;;;;;;;-144.30;74.89;85102.22;5070428;28;20314;-48
2023/09/13 02:37:36;;;;;;;15.73;8.00;;;;;;;-144.30;74.69;85094.28;5070189;28;20192;-49
2023/09/13 02:40:05;;;;;;;10.33;7.37;;;;;;;-144.30;74.79;85064.47;5070729;28;20210;-48
2023/09/13 02:42:32;;;;;;;12.90;7.20;;;;;;;-144.30;74.75;85074.41;5070190;28;20203;-57
2023/09/13 02:44:59;;;;;;;12.27;6.87;;;;;;;-144.30;74.64;84915.38;5070535;28;20207;-57
2023/09/13 02:47:26;;;;;;;8.33;6.70;;;;;;;-144.30;75.03;85076.38;5070301;28;20683;-57
2023/09/13 02:49:53;;;;;;;10.60;6.50;;;;;;;-144.30;75.30;85112.16;5070450;28;20206;-57
2023/09/13 02:52:28;;;;;;;8.17;6.33;;;;;;;-144.30;75.73;85130.06;5070313;28;20286;-57
2023/09/13 02:54:57;;;;;;;15.30;7.40;;;;;;;-144.30;75.82;85114.16;5070360;28;20227;-48
2023/09/13 02:57:24;;;;;;;8.30;6.93;;;;;;;-144.30;76.07;85108.19;5070562;28;20192;-57
2023/09/13 02:59:51;;;;;;;10.03;6.60;;;;;;;-144.30;76.13;85014.78;5070295;28;20584;-57
2023/09/13 03:02:18;;;;;;;9.87;6.67;;;;;;;-144.30;76.03;85100.25;5069889;28;20200;-49
2023/09/13 03:04:45;;;;;;;9.30;6.10;;;;;;;-144.30;75.74;85086.31;5069897;28;20196;-57
2023/09/13 03:07:12;;;;;;;13.70;7.00;;;;;;;-144.30;75.88;85149.94;5069927;28;20207;-57
2023/09/13 03:09:39;;;;;;;14.37;7.20;;;;;;;-144.30;75.60;85161.88;5069851;28;20206;-57
2023/09/13 03:12:08;;;;;;;10.87;6.67;;;;;;;-144.30;75.59;85149.94;5057822;28;20278;-58
2023/09/13 03:14:35;;;;;;;14.83;6.80;;;;;;;-144.30;75.74;85169.81;5048818;28;20192;-58
2023/09/13 03:17:02;;;;;;;6.97;6.37;;;;;;;-144.30;75.64;85140.00;5048446;28;20271;-48
2023/09/13 03:19:30;;;;;;;16.63;7.27;;;;;;;-144.30;75.70;85181.75;5049524;28;20212;-48
2023/09/13 03:21:58;;;;;;;11.50;6.97;;;;;;;-144.30;75.71;85175.78;5049787;28;20211;-57
2023/09/13 03:24:25;;;;;;;12.23;7.00;;;;;;;-144.30;75.15;85145.97;5049446;28;20196;-57
2023/09/13 03:26:52;;;;;;;8.87;6.80;;;;;;;-144.30;74.74;85149.94;5049768;28;20193;-57
2023/09/13 03:29:20;;;;;;;8.17;6.47;;;;;;;-144.30;74.19;85124.09;5049370;28;20211;-49
2023/09/13 03:31:47;;;;;;;10.17;6.47;;;;;;;-144.30;73.89;85138.00;5049556;28;20197;-48
2023/09/13 03:34:14;;;;;;;10.73;5.97;;;;;;;-144.30;73.95;85193.66;5049300;28;20580;-57
2023/09/13 03:36:41;;;;;;;10.73;6.57;;;;;;;-144.30;73.79;85153.91;5049039;28;20270;-57
2023/09/13 03:39:09;;;;;;;16.33;7.60;;;;;;;-144.30;73.69;85181.75;5060063;28;20200;-57
2023/09/13 03:41:36;;;;;;;12.47;7.10;;;;;;;-144.30;74.21;85155.91;5067043;28;20700;-56
2023/09/13 03:44:03;;;;;;;15.37;7.20;;;;;;;-144.30;74.62;85199.63;5069026;28;20249;-57
2023/09/13 03:46:31;;;;;;;14.17;6.97;;;;;;;-144.30;75.16;85193.66;5068173;28;20188;-48
2023/09/13 03:48:58;;;;;;;8.30;7.40;;;;;;;-144.30;75.43;85209.56;5068734;28;20207;-49
2023/09/13 03:51:25;;;;;;;8.57;7.77;;;;;;;-144.30;75.65;85157.88;5064265;28;20651;-48
2023/09/13 03:53:52;;;;;;;9.53;7.47;;;;;;;-144.30;75.93;85165.84;5068887;28;20192;-57
2023/09/13 03:56:19;;;;;;;11.67;8.30;;;;;;;-144.30;75.96;85189.69;5068467;28;20211;-48
2023/09/13 03:58:46;;;;;;;13.57;8.93;;;;;;;-144.30;76.22;85191.69;5068868;28;20666;-57
2023/09/13 04:01:13;;;;;;;14.30;8.77;;;;;;;-144.30;76.37;85165.84;5069169;28;20199;-48
2023/09/13 04:03:41;;;;;;;14.40;8.63;;;;;;;-144.30;76.02;85181.75;5069209;28;20226;-49
2023/09/13 04:06:08;;;;;;;15.27;8.80;;;;;;;-144.30;75.74;85175.78;5069358;28;20290;-57
2023/09/13 04:08:35;;;;;;;11.37;8.83;;;;;;;-144.30;75.07;85153.91;5069183;28;20235;-58
2023/09/13 04:11:02;;;;;;;16.53;9.87;;;;;;;-144.30;74.81;85157.88;5069289;28;20589;-57
2023/09/13 04:13:30;;;;;;;18.70;9.47;;;;;;;-144.30;74.33;85159.88;5064260;28;20208;-49
2023/09/13 04:16:02;;;;;;;14.77;9.77;;;;;;;-144.30;73.98;85116.16;5069090;28;20269;-48
2023/09/13 04:18:29;;;;;;;23.23;11.77;;;;;;;-144.30;74.00;85149.94;5068791;28;20781;-48
2023/09/13 04:20:58;;;;;;;16.17;9.50;;;;;;;-144.30;73.87;85159.88;5069006;28;20294;-48
2023/09/13 04:23:24;;;;;;;16.33;9.23;;;;;;;-144.30;73.67;85122.09;5077030;28;20836;-48
2023/09/13 04:25:52;;;;;;;15.03;9.10;;;;;;;-144.30;73.31;85175.78;5070634;28;20198;-49
2023/09/13 04:28:19;;;;;;;10.47;7.30;;;;;;;-144.30;73.19;85128.06;5067023;28;20703;-50
2023/09/13 04:30:45;;;;;;;14.07;8.07;;;;;;;-144.30;72.93;85114.16;5067461;28;20196;-50
2023/09/13 04:33:12;;;;;;;14.67;8.97;;;;;;;-144.30;72.59;85090.31;5067927;28;20196;-57
2023/09/13 04:35:39;;;;;;;15.03;8.30;;;;;;;-144.30;72.41;85145.97;5067673;28;20774;-49
2023/09/13 04:38:08;;;;;;;8.33;7.30;;;;;;;-144.30;72.15;85090.31;5067843;28;20196;-49
2023/09/13 04:40:35;;;;;;;13.93;8.70;;;;;;;-144.30;71.90;85132.03;5069647;28;20654;-57
2023/09/13 04:43:23;;;;;;;14.97;8.53;;;;;;;-144.30;71.37;85126.09;5068536;28;20499;-49
2023/09/13 04:45:51;;;;;;;13.50;7.90;;;;;;;-144.30;70.79;85082.34;5069262;28;20196;-57
2023/09/13 04:48:18;;;;;;;15.03;7.87;;;;;;;-144.30;69.71;85082.34;5071716;28;20207;-58
2023/09/13 04:50:45;;;;;;;12.97;8.20;;;;;;;-144.30;68.55;85022.72;5072432;28;20207;-50
2023/09/13 04:53:14;;;;;;;11.97;8.47;;;;;;;-144.30;68.09;85022.72;5072691;28;20574;-50
2023/09/13 04:55:44;;;;;;;13.15;7.80;;;;;;;-144.30;67.78;84998.88;5071302;28;20311;-58
2023/09/13 04:58:11;;;;;;;10.33;7.93;;;;;;;-144.30;67.43;84994.91;5072325;28;20195;-56
2023/09/13 05:00:37;;;;;;;18.33;9.18;;;;;;;-144.30;67.05;85032.66;5071859;28;20249;-57
2023/09/13 05:03:04;;;;;;;11.20;7.47;;;;;;;-144.30;66.57;84957.13;5071425;28;20200;-49
2023/09/13 05:05:31;;;;;;;14.57;8.00;;;;;;;-144.30;64.94;84911.41;5072521;28;20247;-52
2023/09/13 05:07:58;;;;;;;13.95;7.93;;;;;;;-144.30;60.87;84760.34;5072385;28;20214;-53
2023/09/13 05:10:27;;;;;;;10.45;7.60;;;;;;;-144.30;56.17;84527.81;5071971;28;20196;-56
2023/09/13 05:12:53;;;;;;;13.60;7.28;;;;;;;-144.30;51.35;84341.00;5072319;28;20204;-52
2023/09/13 05:15:20;;;;;;;9.18;7.65;;;;;;;-144.30;47.98;84178.03;5071997;28;20208;-54
2023/09/13 05:17:47;;;;;;;7.28;6.40;;;;;;;-144.30;44.86;83965.41;5071841;28;20243;-52
2023/09/13 05:20:14;;;;;;;10.55;6.57;;;;;;;-144.30;42.78;83846.19;5072067;28;20200;-55
2023/09/13 05:22:43;;;;;;;9.80;6.80;;;;;;;-144.30;40.58;83669.34;5071896;28;20204;-56
2023/09/13 05:25:10;;;;;;;14.90;6.78;;;;;;;-144.30;38.61;83542.19;5071885;28;20204;-55
2023/09/13 05:27:38;;;;;;;13.52;7.15;;;;;;;-144.30;37.66;83432.91;5071748;28;20202;-55
2023/09/13 05:30:06;;;;;;;8.02;6.60;;;;;;;-144.30;36.52;83341.50;5071782;28;20203;-56
2023/09/13 05:32:33;;;;;;;9.27;6.20;;;;;;;-144.30;35.80;83297.81;5072100;28;20668;-53
2023/09/13 05:35:00;;;;;;;14.75;9.88;;;;;;;-144.30;35.27;83222.31;5072060;28;20574;-53
2023/09/13 05:37:27;;;;;;;31.70;22.23;;;;;;;-144.30;34.73;83236.22;5071283;28;20230;-54
2023/09/13 05:39:54;;;;;;;18.95;7.63;;;;;;;-144.30;34.01;83099.13;5071645;28;20199;-53
2023/09/13 05:42:20;;;;;;;9.55;6.78;;;;;;;-144.30;33.50;83029.59;5071587;28;20282;-52
2023/09/13 05:44:49;;;;;;;8.57;7.43;;;;;;;-144.30;33.29;82972.00;5071199;28;20196;-55
2023/09/13 05:47:16;;;;;;;14.52;7.22;;;;;;;-144.30;32.56;82832.94;5071466;28;20192;-55
2023/09/13 05:49:43;;;;;;;12.35;9.73;;;;;;;-144.30;32.19;82821.03;5071112;28;20204;-56
2023/09/13 05:52:09;;;;;;;11.85;6.35;;;;;;;-144.30;31.86;82797.19;5071317;28;20246;-55
2023/09/13 05:54:36;;;;;;;9.80;7.32;;;;;;;-144.30;31.66;82693.88;5071502;28;20200;-55
2023/09/13 05:57:03;;;;;;;14.75;6.50;;;;;;;-144.30;31.13;82674.03;5071111;28;20220;-55
2023/09/13 05:59:35;;;;;;;11.95;5.80;;;;;;;-144.30;30.74;82507.19;5070262;28;20196;-55
2023/09/13 06:02:03;;;;;;;8.73;5.38;;;;;;;-144.30;29.53;82284.72;5071146;28;20290;-55
2023/09/13 06:04:30;;;;;;;10.88;5.88;;;;;;;-144.30;29.00;82111.94;5070996;28;20665;-52
2023/09/13 06:06:57;;;;;;;9.68;5.90;;;;;;;-144.30;28.16;82086.13;5071307;28;21153;-54
2023/09/13 06:09:24;;;;;;;11.52;5.55;;;;;;;-144.30;27.90;82000.72;5071108;28;20222;-55
2023/09/13 06:11:51;;;;;;;13.20;5.88;;;;;;;-144.30;28.03;82036.47;5071015;28;20655;-55
2023/09/13 06:14:19;;;;;;;8.98;5.78;;;;;;;-144.30;27.88;82066.25;5071234;28;20196;-55
2023/09/13 06:16:46;;;;;;;7.40;5.68;;;;;;;-144.30;27.77;81966.94;5071009;28;20706;-52
2023/09/13 06:19:14;;;;;;;18.55;6.30;;;;;;;-144.30;27.60;81871.63;5070964;28;20234;-55
2023/09/13 06:21:41;;;;;;;8.50;5.95;;;;;;;-144.30;27.58;81931.22;5070591;28;20204;-55
2023/09/13 06:24:08;;;;;;;5.57;4.95;;;;;;;-144.30;27.05;81764.38;5070820;28;20210;-53
2023/09/13 06:26:35;;;;;;;6.85;6.22;;;;;;;-144.30;27.16;81835.88;5070599;28;20269;-52
2023/09/13 06:29:02;;;;;;;12.90;5.43;;;;;;;-144.30;27.00;81700.84;5070519;28;20199;-52
2023/09/13 06:31:29;;;;;;;5.85;4.88;;;;;;;-144.30;26.94;81655.19;5070395;28;20210;-52
2023/09/13 06:33:55;;;;;;;9.43;5.22;;;;;;;-144.30;26.82;81619.44;5070799;28;20200;-52
2023/09/13 06:36:24;;;;;;;6.32;5.22;;;;;;;-144.30;27.07;81538.00;5070655;28;20619;-54
2023/09/13 06:38:51;;;;;;;5.72;5.30;;;;;;;-144.30;27.14;81506.25;5070573;28;20202;-52
2023/09/13 06:41:18;;;;;;;9.60;4.97;;;;;;;-144.30;26.78;81518.16;5070811;28;20197;-54
2023/09/13 06:43:45;;;;;;;7.82;5.75;;;;;;;-144.30;27.25;81742.53;5070572;28;20575;-53
2023/09/13 06:46:12;;;;;;;5.97;4.93;;;;;;;-144.30;28.50;81808.09;5070368;28;20249;-53
2023/09/13 06:48:39;;;;;;;8.02;5.55;;;;;;;-144.30;27.69;81782.25;5070358;28;20588;-53
2023/09/13 06:51:06;;;;;;;7.90;5.55;;;;;;;-144.30;28.00;81812.06;5070134;28;20199;-57
2023/09/13 06:53:34;;;;;;;13.23;5.55;;;;;;;-144.30;28.03;81883.53;5069938;28;20207;-54
2023/09/13 06:56:01;;;;;;;11.90;5.32;;;;;;;-144.30;28.15;81895.47;5070194;28;20230;-56
2023/09/13 06:58:28;;;;;;;10.50;5.10;;;;;;;-144.30;27.93;81756.44;5069799;28;20234;-56
2023/09/13 07:00:55;;;;;;;8.30;5.57;;;;;;;-144.30;27.75;81619.44;5070110;28;20199;-53
2023/09/13 07:03:22;;;;;;;8.93;5.75;;;;;;;-144.30;27.64;81659.16;5070114;28;20571;-53
2023/09/13 07:05:50;;;;;;;11.38;5.18;;;;;;;-144.30;27.87;81720.69;5069924;28;20221;-53
2023/09/13 07:08:17;;;;;;;18.77;6.40;;;;;;;-144.30;28.00;81748.50;5070387;28;20222;-56
2023/09/13 07:10:45;;;;;;;8.05;5.35;;;;;;;-144.30;28.17;81778.28;5069652;28;20191;-56
2023/09/13 07:13:12;;;;;;;9.10;6.00;;;;;;;-144.30;28.78;82026.53;5070250;28;20196;-53
2023/09/13 07:15:40;;;;;;;14.40;5.50;;;;;;;-144.30;28.83;81953.06;5069887;28;20199;-53
2023/09/13 07:18:08;;;;;;;9.57;5.53;;;;;;;-144.30;28.73;81947.09;5069649;28;20368;-53
2023/09/13 07:20:35;;;;;;;9.68;5.32;;;;;;;-144.30;27.63;81561.84;5069575;28;20227;-54
2023/09/13 07:23:03;;;;;;;7.18;4.97;;;;;;;-144.30;27.29;81887.53;5069745;28;20198;-56
2023/09/13 07:25:29;;;;;;;9.90;5.78;;;;;;;-144.30;27.52;81675.03;5069596;28;20199;-56
2023/09/13 07:27:59;;;;;;;10.18;6.32;;;;;;;-144.30;27.57;81625.38;5069810;28;20195;-56
2023/09/13 07:30:27;;;;;;;9.73;7.10;;;;;;;-144.30;27.12;81464.53;5069956;28;20668;-56
2023/09/13 07:32:54;;;;;;;7.47;5.22;;;;;;;-144.30;26.72;81285.84;5069832;28;20330;-53
2023/09/13 07:35:22;;;;;;;5.90;5.07;;;;;;;-144.30;26.20;81125.00;5069844;28;20561;-57
2023/09/13 07:37:49;;;;;;;8.77;4.97;;;;;;;-144.30;25.75;80934.41;5069575;28;20227;-57
2023/09/13 07:40:16;;;;;;;11.57;5.93;;;;;;;-144.30;25.83;80847.06;5064982;28;20214;-55
2023/09/13 07:42:43;;;;;;;8.77;5.10;;;;;;;-144.30;25.15;80575.06;5068607;28;20226;-55
2023/09/13 07:45:11;;;;;;;6.55;5.22;;;;;;;-144.30;24.57;80257.47;5069313;28;20278;-56
2023/09/13 07:47:38;;;;;;;6.13;4.90;;;;;;;-144.30;24.16;80150.28;5069004;28;20195;-56
2023/09/13 07:50:05;;;;;;;8.60;4.43;;;;;;;-144.30;24.77;80479.78;5069348;28;20262;-56
2023/09/13 07:52:32;;;;;;;5.15;3.85;;;;;;;-144.30;24.89;80410.31;5069156;28;20203;-53
2023/09/13 07:55:00;;;;;;;8.05;4.65;;;;;;;-144.30;24.93;80581.03;5068782;28;20592;-53
2023/09/13 07:57:27;;;;;;;8.93;4.78;;;;;;;-144.30;24.59;80285.25;5069128;28;20294;-53
2023/09/13 07:59:53;;;;;;;8.27;4.78;;;;;;;-144.30;24.08;80017.28;5069434;28;20206;-53
2023/09/13 08:02:22;;;;;;;5.93;4.38;;;;;;;-144.30;23.40;79715.59;5069057;28;20290;-52
2023/09/13 08:04:49;;;;;;;10.73;5.65;;;;;;;-144.30;24.18;80243.56;5069353;28;20687;-52
2023/09/13 08:07:16;;;;;;;8.40;5.20;;;;;;;-144.30;24.55;80221.72;5069343;28;20192;-56
2023/09/13 08:09:43;;;;;;;7.32;5.18;;;;;;;-144.30;25.00;80688.22;5068787;28;20199;-56
2023/09/13 08:12:10;;;;;;;5.63;5.20;;;;;;;-144.30;26.02;81232.22;5069287;28;20570;-52
2023/09/13 08:14:37;;;;;;;6.03;5.40;;;;;;;-144.30;26.82;81524.13;5069075;28;20209;-52
2023/09/13 08:17:04;;;;;;;7.13;5.03;;;;;;;-144.30;27.98;81929.22;5068577;28;20223;-52
2023/09/13 08:19:32;;;;;;;7.07;5.68;;;;;;;-144.30;28.26;81947.09;5068943;28;20200;-55
2023/09/13 08:21:59;;;;;;;5.70;5.15;;;;;;;-144.30;28.34;81939.16;5071607;28;20580;-55
2023/09/13 08:24:26;;;;;;;8.45;4.75;;;;;;;-144.30;28.61;82012.63;5072345;28;20199;-55
2023/09/13 08:26:53;;;;;;;7.97;4.72;;;;;;;-144.30;29.19;82195.34;5073183;28;20222;-57
2023/09/13 08:29:20;;;;;;;5.57;5.07;;;;;;;-144.30;30.20;82485.34;5072971;28;20650;-56
2023/09/13 08:31:47;;;;;;;9.32;4.80;;;;;;;-144.30;31.13;82717.72;5073066;28;20203;-56
2023/09/13 08:34:14;;;;;;;12.82;5.32;;;;;;;-144.30;32.11;82914.38;5073285;28;20743;-56
2023/09/13 08:36:42;;;;;;;6.80;5.18;;;;;;;-144.30;32.71;82977.97;5072732;28;20311;-55
2023/09/13 08:39:09;;;;;;;7.55;5.00;;;;;;;-144.30;33.58;83122.97;5072394;28;20235;-56
2023/09/13 08:41:36;;;;;;;5.78;5.15;;;;;;;-144.30;33.65;83174.63;5072749;28;20196;-55
2023/09/13 08:44:05;;;;;;;7.15;5.38;;;;;;;-144.30;33.92;83119.00;5072654;28;20192;-55
2023/09/13 08:46:33;;;;;;;5.82;5.03;;;;;;;-144.30;34.24;83208.41;5072337;28;20254;-54
2023/09/13 08:49:01;;;;;;;5.32;4.93;;;;;;;-144.30;34.35;83220.31;5072703;28;20196;-52
2023/09/13 08:51:29;;;;;;;9.75;5.22;;;;;;;-144.30;34.76;83254.09;5072581;28;20227;-52
2023/09/13 08:53:57;;;;;;;6.40;4.97;;;;;;;-144.30;34.96;83305.75;5072211;28;20192;-55
2023/09/13 08:56:24;;;;;;;7.88;5.53;;;;;;;-144.30;35.03;83313.69;5072273;28;20200;-55
2023/09/13 08:58:52;;;;;;;11.15;5.78;;;;;;;-144.30;35.83;83389.19;5072697;28;20216;-56
2023/09/13 09:01:22;;;;;;;10.40;5.05;;;;;;;-144.30;35.34;83409.06;5072707;28;20245;-57
2023/09/13 09:03:50;;;;;;;6.28;4.95;;;;;;;-144.30;36.00;83424.97;5072316;28;20291;-52
2023/09/13 09:06:19;;;;;;;7.00;5.55;;;;;;;-144.30;36.00;83432.91;5072578;28;20733;-56
2023/09/13 09:08:49;;;;;;;5.72;5.22;;;;;;;-144.30;36.15;83440.84;5056720;28;20211;-56
2023/09/13 09:11:19;;;;;;;9.50;5.18;;;;;;;-144.30;35.68;83385.22;5052360;28;20196;-52
2023/09/13 09:13:47;;;;;;;10.80;5.78;;;;;;;-144.30;36.44;83426.94;5052438;28;20259;-52
2023/09/13 09:16:16;;;;;;;9.48;5.90;;;;;;;-144.30;36.62;83488.53;5052227;28;20203;-52
2023/09/13 09:18:44;;;;;;;7.55;5.68;;;;;;;-144.30;36.16;83462.72;5081559;28;20768;-51
2023/09/13 09:21:12;;;;;;;7.72;5.85;;;;;;;-144.30;36.17;83434.91;5068617;28;20208;-55
2023/09/13 09:23:40;;;;;;;6.53;5.22;;;;;;;-144.30;35.68;83440.84;5071078;28;20208;-55
2023/09/13 09:26:07;;;;;;;11.27;5.93;;;;;;;-144.30;35.33;83357.41;5071826;28;20211;-55
2023/09/13 09:28:35;;;;;;;10.88;5.90;;;;;;;-144.30;35.53;83434.91;5071639;28;20196;-55
2023/09/13 09:31:03;;;;;;;6.15;5.38;;;;;;;-144.30;35.36;83361.38;5071887;28;20204;-51
2023/09/13 09:33:31;;;;;;;11.27;5.10;;;;;;;-144.30;34.52;83210.38;5069954;28;20254;-51
2023/09/13 09:35:59;;;;;;;8.95;6.10;;;;;;;-144.30;34.34;83234.22;5071795;28;20703;-50
2023/09/13 09:38:28;;;;;;;7.00;5.50;;;;;;;-144.30;34.86;83297.81;5071306;28;20273;-52
2023/09/13 09:40:58;;;;;;;7.85;5.15;;;;;;;-144.30;34.03;83168.66;5071469;28;20196;-51
2023/09/13 09:43:25;;;;;;;9.52;5.00;;;;;;;-144.30;33.24;83087.22;5071852;28;20672;-51
2023/09/13 09:45:54;;;;;;;8.77;5.82;;;;;;;-144.30;32.78;82970.00;5071730;28;20232;-52
2023/09/13 09:48:21;;;;;;;10.35;5.35;;;;;;;-144.30;33.15;83069.34;5071826;28;20573;-54
2023/09/13 09:50:52;;;;;;;11.65;6.05;;;;;;;-144.30;33.55;83122.97;5071766;28;20670;-52
2023/09/13 09:53:20;;;;;;;6.53;5.35;;;;;;;-144.30;34.30;83266.03;5071809;28;20291;-50
2023/09/13 09:55:48;;;;;;;9.38;5.63;;;;;;;-144.30;34.77;83331.59;5071372;28;20204;-51
2023/09/13 09:58:17;;;;;;;7.57;5.63;;;;;;;-144.30;34.93;83345.50;5070885;28;20215;-50
2023/09/13 10:00:46;;;;;;;11.48;5.63;;;;;;;-144.30;35.44;83464.69;5070887;28;20195;-51
2023/09/13 10:03:18;;;;;;;8.73;5.22;;;;;;;-144.30;35.82;83466.69;5070662;28;20196;-50
2023/09/13 10:05:57;;;;;;;12.43;6.10;;;;;;;-144.30;36.19;83548.16;5070678;28;20242;-54
2023/09/13 10:08:43;;;;;;;14.25;5.57;;;;;;;-144.30;36.12;83599.81;5070698;28;20194;-55
2023/09/13 10:11:12;;;;;;;8.20;6.28;;;;;;;-144.30;35.73;83528.28;5071203;28;20245;-55
2023/09/13 10:13:39;;;;;;;10.10;5.90;;;;;;;-144.30;35.83;83432.91;5071016;28;20257;-55
2023/09/13 10:16:08;;;;;;;11.32;5.85;;;;;;;-144.30;35.66;83381.25;5071144;28;20198;-56
2023/09/13 10:18:44;;;;;;;7.22;5.93;;;;;;;-144.30;35.74;83401.13;5070520;28;20263;-56
2023/09/13 10:21:11;;;;;;;15.13;6.43;;;;;;;-144.30;35.34;83424.97;5070944;28;20278;-52
2023/09/13 10:23:40;;;;;;;6.65;6.05;;;;;;;-144.30;35.53;83417.00;5070431;28;20277;-52
2023/09/13 10:26:09;;;;;;;8.65;6.43;;;;;;;-144.30;35.49;83434.91;5070601;28;20200;-51
2023/09/13 10:28:39;;;;;;;6.30;5.70;;;;;;;-144.30;35.27;83397.16;5070643;28;20254;-51
2023/09/13 10:31:12;;;;;;;10.40;5.85;;;;;;;-144.30;35.67;83428.94;5071061;28;20706;-55
2023/09/13 10:33:45;;;;;;;10.02;5.60;;;;;;;-144.30;35.41;83442.84;5070715;28;20206;-51
2023/09/13 10:36:21;;;;;;;12.50;6.30;;;;;;;-144.30;35.27;83424.97;5070744;28;20234;-51
2023/09/13 10:38:58;;;;;;;11.68;4.90;;;;;;;-144.30;35.34;83444.81;5070340;28;20227;-55
2023/09/13 10:41:32;;;;;;;12.10;5.25;;;;;;;-144.30;34.45;83409.06;5070790;28;20218;-51
2023/09/13 10:43:59;;;;;;;6.40;4.93;;;;;;;-144.30;34.53;83367.34;5070336;28;20218;-51
2023/09/13 10:46:27;;;;;;;7.70;5.28;;;;;;;-144.30;34.41;83436.88;5070535;28;20670;-56
2023/09/13 10:48:56;;;;;;;13.52;4.93;;;;;;;-144.30;34.63;83401.13;5070626;28;20192;-54
2023/09/13 10:51:25;;;;;;;5.60;4.95;;;;;;;-144.30;34.30;83397.16;5070595;28;20223;-51
2023/09/13 10:53:52;;;;;;;10.27;5.07;;;;;;;-144.30;34.51;83385.22;5069527;28;20673;-52
2023/09/13 10:56:20;;;;;;;13.75;6.28;;;;;;;-144.30;34.49;83355.41;5050469;28;20192;-58
2023/09/13 10:58:50;;;;;;;6.20;5.68;;;;;;;-144.30;34.29;83333.56;5050441;28;20667;-58
2023/09/13 11:01:18;;;;;;;15.10;5.57;;;;;;;-144.30;34.73;83397.16;5050902;28;20683;-52
2023/09/13 11:03:45;;;;;;;6.68;5.85;;;;;;;-144.30;34.96;83420.97;5049903;28;20200;-53
2023/09/13 11:06:14;;;;;;;7.80;5.22;;;;;;;-144.30;35.04;83444.81;5050145;28;20196;-52
2023/09/13 11:08:41;;;;;;;7.20;6.22;;;;;;;-144.30;35.17;83397.16;5050176;28;20275;-53
2023/09/13 11:11:12;;;;;;;9.00;6.03;;;;;;;-144.30;35.29;83430.91;5050331;28;20193;-58
2023/09/13 11:13:38;;;;;;;6.05;5.53;;;;;;;-144.30;34.60;83353.44;5052060;28;20202;-57
2023/09/13 11:16:07;;;;;;;10.43;6.10;;;;;;;-144.30;34.13;83373.31;5066185;28;20210;-52
2023/09/13 11:18:45;;;;;;;9.27;6.22;;;;;;;-144.30;34.58;83397.16;5066213;28;20778;-51